PWSweather.com
Personal Weather Stations
Station Observations
IROGLAN40
AalgaardNO 4330

AalgaardNO 4330

Lat: 58.773, Lon: 5.846

Elevation: 326

Station Type: Davis Vanatge Pro2

Latest ConditionsUpdated 12:00:01 PM GMT+01:01 Monday, Apr 24, 2017
Currently Today's Max Today's Min Today's Average
Temperature 39.7°F4.3°C 42.9°F6.1°C 36.6°F2.6°C 39.1°F3.9°C
Dew Point 30.0°F-1.1°C 40.5°F4.7°C 27.5°F-2.5°C 34.4°F1.3°C
Winds 12.7 mph NW20.4 kmh NW 17.3 mph WNW27.8 kmh WNW - 9.0 mph 14.5 kmh
Wind Gusts 19.6 mph31.5 kmh 23.0 mph37.0 kmh - -
Humidity 68% 91% 60% 84%
Pressure 29.58 in1001.7 mb 29.70 in1005.8 mb 29.50 in999.0 mb -
Precipitation - 0.43 in10.9 mm - -
Hour Temp Dew Point Humidity Winds Wind Gusts Pressure Precip Precip Rate Daily Precip Total
12:00 PM 39.7°F4.3°C 30.0°F-1.1°C 68% 12.7 mph NW20.4 kmh NW 19.6 mph31.5 kmh 29.58 in1001.7 mb - 0.00 in0.0 mm 0.43 in10.9 mm
11:50 AM 39.8°F4.3°C 29.7°F-1.3°C 67% 11.5 mph WNW18.5 kmh WNW 21.9 mph35.2 kmh 29.58 in1001.7 mb - 0.00 in0.0 mm 0.43 in10.9 mm
11:40 AM 40.0°F4.4°C 31.4°F-0.3°C 71% 13.8 mph NW22.2 kmh NW 20.7 mph33.3 kmh 29.57 in1001.4 mb - 0.00 in0.0 mm 0.43 in10.9 mm
11:30 AM 39.3°F4.1°C 31.4°F-0.3°C 73% 13.8 mph NW22.2 kmh NW 21.9 mph35.2 kmh 29.57 in1001.4 mb - 0.00 in0.0 mm 0.43 in10.9 mm
11:20 AM 40.2°F4.6°C 29.4°F-1.4°C 65% 10.4 mph WNW16.7 kmh WNW 20.7 mph33.3 kmh 29.57 in1001.4 mb - 0.00 in0.0 mm 0.43 in10.9 mm
11:10 AM 40.3°F4.6°C 28.7°F-1.8°C 63% 15.0 mph NW24.1 kmh NW 23.0 mph37.0 kmh 29.57 in1001.4 mb - 0.00 in0.0 mm 0.43 in10.9 mm
11:00 AM 40.3°F4.6°C 27.5°F-2.5°C 60% 17.3 mph WNW27.8 kmh WNW 19.6 mph31.5 kmh 29.57 in1001.4 mb - 0.00 in0.0 mm 0.43 in10.9 mm
10:50 AM 39.9°F4.4°C 27.5°F-2.5°C 61% 13.8 mph NW22.2 kmh NW 17.3 mph27.8 kmh 29.56 in1001.0 mb - 0.00 in0.0 mm 0.43 in10.9 mm
10:40 AM 39.8°F4.3°C 29.7°F-1.3°C 67% 11.5 mph WNW18.5 kmh WNW 23.0 mph37.0 kmh 29.56 in1001.0 mb - 0.00 in0.0 mm 0.43 in10.9 mm
10:30 AM 39.7°F4.3°C 29.2°F-1.6°C 66% 15.0 mph WNW24.1 kmh WNW 21.9 mph35.2 kmh 29.56 in1001.0 mb - 0.00 in0.0 mm 0.43 in10.9 mm
10:20 AM 40.5°F4.7°C 29.6°F-1.3°C 65% 11.5 mph NW18.5 kmh NW 19.6 mph31.5 kmh 29.55 in1000.7 mb - 0.00 in0.0 mm 0.43 in10.9 mm
10:10 AM 39.9°F4.4°C 29.4°F-1.4°C 66% 11.5 mph WNW18.5 kmh WNW 20.7 mph33.3 kmh 29.55 in1000.7 mb - 0.00 in0.0 mm 0.43 in10.9 mm
10:00 AM 38.7°F3.7°C 30.5°F-0.8°C 72% 11.5 mph NW18.5 kmh NW 17.3 mph27.8 kmh 29.55 in1000.7 mb - 0.00 in0.0 mm 0.43 in10.9 mm
09:50 AM 38.4°F3.6°C 30.5°F-0.8°C 73% 13.8 mph NW22.2 kmh NW 16.1 mph25.9 kmh 29.55 in1000.7 mb - 0.00 in0.0 mm 0.43 in10.9 mm
09:40 AM 38.9°F3.8°C 30.6°F-0.8°C 72% 15.0 mph WNW24.1 kmh WNW 19.6 mph31.5 kmh 29.54 in1000.3 mb - 0.00 in0.0 mm 0.43 in10.9 mm
09:30 AM 38.6°F3.7°C 30.7°F-0.7°C 73% 10.4 mph WNW16.7 kmh WNW 13.8 mph22.2 kmh 29.54 in1000.3 mb - 0.00 in0.0 mm 0.43 in10.9 mm
09:20 AM 38.4°F3.6°C 30.2°F-1.0°C 72% 11.5 mph NW18.5 kmh NW 18.4 mph29.6 kmh 29.54 in1000.3 mb - 0.00 in0.0 mm 0.43 in10.9 mm
09:10 AM 38.2°F3.4°C 30.3°F-0.9°C 73% 9.2 mph WNW14.8 kmh WNW 16.1 mph25.9 kmh 29.54 in1000.3 mb - 0.00 in0.0 mm 0.43 in10.9 mm
09:00 AM 38.2°F3.4°C 31.0°F-0.6°C 75% 11.5 mph WNW18.5 kmh WNW 17.3 mph27.8 kmh 29.54 in1000.3 mb - 0.00 in0.0 mm 0.43 in10.9 mm
08:50 AM 38.5°F3.6°C 31.2°F-0.4°C 75% 15.0 mph WNW24.1 kmh WNW 19.6 mph31.5 kmh 29.54 in1000.3 mb - 0.00 in0.0 mm 0.43 in10.9 mm
08:40 AM 37.7°F3.2°C 31.2°F-0.4°C 77% 10.4 mph WNW16.7 kmh WNW 17.3 mph27.8 kmh 29.54 in1000.3 mb - 0.00 in0.0 mm 0.43 in10.9 mm
08:30 AM 37.5°F3.1°C 31.6°F-0.2°C 79% 6.9 mph WNW11.1 kmh WNW 11.5 mph18.5 kmh 29.54 in1000.3 mb - 0.00 in0.0 mm 0.43 in10.9 mm
08:20 AM 37.5°F3.1°C 31.9°F-0.1°C 80% 11.5 mph WNW18.5 kmh WNW 17.3 mph27.8 kmh 29.53 in1000.0 mb - 0.00 in0.0 mm 0.43 in10.9 mm
08:10 AM 37.2°F2.9°C 31.6°F-0.2°C 80% 9.2 mph WNW14.8 kmh WNW 11.5 mph18.5 kmh 29.53 in1000.0 mb - 0.00 in0.0 mm 0.43 in10.9 mm
08:00 AM 37.1°F2.8°C 31.8°F-0.1°C 81% 12.7 mph WNW20.4 kmh WNW 18.4 mph29.6 kmh 29.52 in999.7 mb - 0.00 in0.0 mm 0.43 in10.9 mm
07:50 AM 37.1°F2.8°C 32.4°F0.2°C 83% 8.1 mph WNW13.0 kmh WNW 11.5 mph18.5 kmh 29.52 in999.7 mb - 0.00 in0.0 mm 0.43 in10.9 mm
07:40 AM 36.9°F2.7°C 32.2°F0.1°C 83% 11.5 mph WNW18.5 kmh WNW 16.1 mph25.9 kmh 29.52 in999.7 mb - 0.00 in0.0 mm 0.43 in10.9 mm
07:30 AM 36.8°F2.7°C 32.4°F0.2°C 84% 8.1 mph WNW13.0 kmh WNW 11.5 mph18.5 kmh 29.53 in1000.0 mb - 0.00 in0.0 mm 0.43 in10.9 mm
07:20 AM 36.9°F2.7°C 32.8°F0.4°C 85% 9.2 mph WNW14.8 kmh WNW 17.3 mph27.8 kmh 29.52 in999.7 mb - 0.00 in0.0 mm 0.43 in10.9 mm
07:10 AM 36.9°F2.7°C 33.1°F0.6°C 86% 10.4 mph WNW16.7 kmh WNW 16.1 mph25.9 kmh 29.52 in999.7 mb - 0.00 in0.0 mm 0.43 in10.9 mm
07:00 AM 37.1°F2.8°C 33.9°F1.1°C 88% 5.8 mph NW9.3 kmh NW 10.4 mph16.7 kmh 29.52 in999.7 mb - 0.00 in0.0 mm 0.43 in10.9 mm
06:50 AM 37.1°F2.8°C 33.9°F1.1°C 88% 6.9 mph WNW11.1 kmh WNW 12.7 mph20.4 kmh 29.51 in999.3 mb - 0.00 in0.0 mm 0.43 in10.9 mm
06:40 AM 36.9°F2.7°C 33.7°F0.9°C 88% 10.4 mph WNW16.7 kmh WNW 15.0 mph24.1 kmh 29.51 in999.3 mb - 0.00 in0.0 mm 0.43 in10.9 mm
06:30 AM 36.7°F2.6°C 33.8°F1.0°C 89% 10.4 mph WNW16.7 kmh WNW 15.0 mph24.1 kmh 29.50 in999.0 mb - 0.00 in0.0 mm 0.43 in10.9 mm
06:20 AM 36.7°F2.6°C 34.0°F1.1°C 90% 11.5 mph NW18.5 kmh NW 15.0 mph24.1 kmh 29.50 in999.0 mb - 0.00 in0.0 mm 0.43 in10.9 mm
06:10 AM 36.6°F2.6°C 34.2°F1.2°C 91% 6.9 mph NW11.1 kmh NW 11.5 mph18.5 kmh 29.50 in999.0 mb - 0.00 in0.0 mm 0.43 in10.9 mm
06:00 AM 36.8°F2.7°C 34.4°F1.3°C 91% 8.1 mph NW13.0 kmh NW 15.0 mph24.1 kmh 29.50 in999.0 mb - 0.00 in0.0 mm 0.43 in10.9 mm
05:50 AM 36.6°F2.6°C 34.2°F1.2°C 91% 5.8 mph WNW9.3 kmh WNW 8.1 mph13.0 kmh 29.50 in999.0 mb - 0.00 in0.0 mm 0.43 in10.9 mm
05:40 AM 36.6°F2.6°C 34.2°F1.2°C 91% 5.8 mph NW9.3 kmh NW 8.1 mph13.0 kmh 29.50 in999.0 mb - 0.00 in0.0 mm 0.43 in10.9 mm
05:30 AM 36.8°F2.7°C 34.4°F1.3°C 91% 8.1 mph WNW13.0 kmh WNW 15.0 mph24.1 kmh 29.50 in999.0 mb - 0.00 in0.0 mm 0.43 in10.9 mm
05:20 AM 37.1°F2.8°C 34.7°F1.5°C 91% 4.6 mph NW7.4 kmh NW 11.5 mph18.5 kmh 29.50 in999.0 mb - 0.00 in0.0 mm 0.43 in10.9 mm
05:10 AM 37.0°F2.8°C 34.6°F1.4°C 91% 5.8 mph WNW9.3 kmh WNW 6.9 mph11.1 kmh 29.50 in999.0 mb - 0.00 in0.0 mm 0.43 in10.9 mm
05:00 AM 36.9°F2.7°C 34.5°F1.4°C 91% 6.9 mph WNW11.1 kmh WNW 8.1 mph13.0 kmh 29.50 in999.0 mb - 0.00 in0.0 mm 0.43 in10.9 mm
04:50 AM 36.8°F2.7°C 34.4°F1.3°C 91% 6.9 mph NW11.1 kmh NW 8.1 mph13.0 kmh 29.50 in999.0 mb - 0.00 in0.0 mm 0.43 in10.9 mm
04:40 AM 36.9°F2.7°C 34.5°F1.4°C 91% 5.8 mph WNW9.3 kmh WNW 9.2 mph14.8 kmh 29.50 in999.0 mb - 0.00 in0.0 mm 0.43 in10.9 mm
04:30 AM 36.7°F2.6°C 34.3°F1.3°C 91% 6.9 mph NW11.1 kmh NW 10.4 mph16.7 kmh 29.50 in999.0 mb - 0.00 in0.0 mm 0.43 in10.9 mm
04:20 AM 36.9°F2.7°C 34.5°F1.4°C 91% 8.1 mph WNW13.0 kmh WNW 13.8 mph22.2 kmh 29.50 in999.0 mb - 0.00 in0.0 mm 0.43 in10.9 mm
04:10 AM 37.2°F2.9°C 34.8°F1.6°C 91% 8.1 mph WNW13.0 kmh WNW 11.5 mph18.5 kmh 29.50 in999.0 mb - 0.00 in0.0 mm 0.43 in10.9 mm
04:00 AM 37.8°F3.2°C 35.4°F1.9°C 91% 6.9 mph WNW11.1 kmh WNW 11.5 mph18.5 kmh 29.50 in999.0 mb - 0.00 in0.0 mm 0.43 in10.9 mm
03:50 AM 38.4°F3.6°C 36.0°F2.2°C 91% 8.1 mph NW13.0 kmh NW 11.5 mph18.5 kmh 29.50 in999.0 mb - 0.00 in0.0 mm 0.43 in10.9 mm
03:40 AM 39.7°F4.3°C 37.2°F2.9°C 91% 6.9 mph NW11.1 kmh NW 11.5 mph18.5 kmh 29.50 in999.0 mb - 0.00 in0.0 mm 0.43 in10.9 mm
03:30 AM 41.0°F5.0°C 38.6°F3.7°C 91% 9.2 mph NW14.8 kmh NW 11.5 mph18.5 kmh 29.50 in999.0 mb - 0.00 in0.0 mm 0.43 in10.9 mm
03:20 AM 42.6°F5.9°C 40.1°F4.5°C 91% 9.2 mph WNW14.8 kmh WNW 11.5 mph18.5 kmh 29.50 in999.0 mb - 0.01 in0.3 mm 0.43 in10.9 mm
03:10 AM 42.9°F6.1°C 40.5°F4.7°C 91% 4.6 mph WSW7.4 kmh WSW 8.1 mph13.0 kmh 29.50 in999.0 mb - 0.00 in0.0 mm 0.42 in10.7 mm
03:00 AM 42.8°F6.0°C 40.4°F4.7°C 91% 8.1 mph NW13.0 kmh NW 11.5 mph18.5 kmh 29.51 in999.3 mb - 0.00 in0.0 mm 0.42 in10.7 mm
02:50 AM 42.8°F6.0°C 40.4°F4.7°C 91% 6.9 mph WNW11.1 kmh WNW 11.5 mph18.5 kmh 29.51 in999.3 mb - 0.01 in0.3 mm 0.42 in10.7 mm
02:40 AM 42.9°F6.1°C 40.5°F4.7°C 91% 8.1 mph WNW13.0 kmh WNW 13.8 mph22.2 kmh 29.53 in1000.0 mb - 0.00 in0.0 mm 0.41 in10.4 mm
02:30 AM 42.8°F6.0°C 40.4°F4.7°C 91% 9.2 mph WNW14.8 kmh WNW 13.8 mph22.2 kmh 29.54 in1000.3 mb - 0.00 in0.0 mm 0.41 in10.4 mm
02:20 AM 42.7°F5.9°C 40.3°F4.6°C 91% 8.1 mph W13.0 kmh W 15.0 mph24.1 kmh 29.54 in1000.3 mb - 0.01 in0.3 mm 0.41 in10.4 mm
02:10 AM 42.6°F5.9°C 40.2°F4.6°C 91% 8.1 mph NW13.0 kmh NW 10.4 mph16.7 kmh 29.55 in1000.7 mb - 0.02 in0.5 mm 0.40 in10.2 mm
02:00 AM 42.3°F5.7°C 39.9°F4.4°C 91% 10.4 mph WNW16.7 kmh WNW 18.4 mph29.6 kmh 29.55 in1000.7 mb - 0.02 in0.5 mm 0.39 in9.9 mm
01:50 AM 42.2°F5.7°C 39.8°F4.3°C 91% 5.8 mph NW9.3 kmh NW 11.5 mph18.5 kmh 29.57 in1001.4 mb - 0.01 in0.3 mm 0.37 in9.4 mm
01:40 AM 42.0°F5.6°C 39.6°F4.2°C 91% 2.3 mph NW3.7 kmh NW 12.7 mph20.4 kmh 29.58 in1001.7 mb - 0.02 in0.5 mm 0.36 in9.1 mm
01:30 AM 41.9°F5.5°C 39.5°F4.2°C 91% 6.9 mph WNW11.1 kmh WNW 11.5 mph18.5 kmh 29.59 in1002.0 mb - 0.02 in0.5 mm 0.35 in8.9 mm
01:20 AM 41.8°F5.4°C 39.4°F4.1°C 91% 6.9 mph NNW11.1 kmh NNW 12.7 mph20.4 kmh 29.61 in1002.7 mb - 0.02 in0.5 mm 0.32 in8.1 mm
01:10 AM 41.5°F5.3°C 39.1°F3.9°C 91% 5.8 mph NW9.3 kmh NW 6.9 mph11.1 kmh 29.61 in1002.7 mb - 0.02 in0.5 mm 0.31 in7.9 mm
01:00 AM 41.2°F5.1°C 38.8°F3.8°C 91% 4.6 mph WNW7.4 kmh WNW 8.1 mph13.0 kmh 29.62 in1003.0 mb - 0.02 in0.5 mm 0.28 in7.1 mm
12:50 AM 41.1°F5.1°C 38.7°F3.7°C 91% 3.5 mph SW5.6 kmh SW 4.6 mph7.4 kmh 29.64 in1003.7 mb - 0.03 in0.8 mm 0.26 in6.6 mm
12:40 AM 40.9°F4.9°C 38.5°F3.6°C 91% 4.6 mph NNW7.4 kmh NNW 11.5 mph18.5 kmh 29.65 in1004.1 mb - 0.03 in0.8 mm 0.24 in6.1 mm
12:30 AM 40.7°F4.8°C 38.3°F3.5°C 91% 3.5 mph NNW5.6 kmh NNW 8.1 mph13.0 kmh 29.66 in1004.4 mb - 0.02 in0.5 mm 0.21 in5.3 mm
12:20 AM 40.4°F4.7°C 38.0°F3.3°C 91% 6.9 mph W11.1 kmh W 8.1 mph13.0 kmh 29.67 in1004.7 mb - 0.03 in0.8 mm 0.18 in4.6 mm
12:10 AM 40.1°F4.5°C 37.7°F3.2°C 91% 4.6 mph N7.4 kmh N 5.8 mph9.3 kmh 29.69 in1005.4 mb - 0.02 in0.5 mm 0.15 in3.8 mm
12:00 AM 39.9°F4.4°C 37.5°F3.1°C 91% 11.5 mph WNW18.5 kmh WNW 16.1 mph25.9 kmh 29.70 in1005.8 mb - 0.03 in0.8 mm 0.13 in3.3 mm